Time;durP1;ratioP1;P1;durP2;ratioP2;P2;SDS_P1;SDS_P2;PMS_P1;PMS_P2;Temp;Humidity;BMP_temperature;BMP_pressure;BME280_temperature;BME280_humidity;BME280_pressure;Samples;Min_cycle;Max_cycle;Signal;HPM_P1;HPM_P2
2021/03/26 00:01:51;;;;;;;17.20;7.10;;;8.10;70.10;;;;;;4998547;28;20029;-73
2021/03/26 00:04:18;;;;;;;14.65;7.30;;;8.10;70.70;;;;;;5001238;28;20042;-75
2021/03/26 00:06:47;;;;;;;14.23;7.80;;;8.20;71.10;;;;;;5016523;28;20045;-76
2021/03/26 00:09:24;;;;;;;20.48;8.82;;;8.30;71.20;;;;;;5001077;28;20412;-73
2021/03/26 00:11:51;;;;;;;13.75;8.50;;;8.30;71.50;;;;;;5003925;28;20117;-72
2021/03/26 00:14:17;;;;;;;16.40;9.10;;;8.40;71.70;;;;;;4991006;28;20050;-72
2021/03/26 00:16:43;;;;;;;19.33;10.65;;;8.50;71.80;;;;;;5002338;28;20488;-73
2021/03/26 00:19:09;;;;;;;17.83;9.45;;;8.60;72.20;;;;;;4998159;28;20034;-73
2021/03/26 00:21:36;;;;;;;15.93;10.05;;;8.60;72.30;;;;;;4999054;28;20070;-71
2021/03/26 00:24:02;;;;;;;18.17;11.50;;;8.60;72.40;;;;;;5006814;28;20124;-73
2021/03/26 00:26:28;;;;;;;23.00;12.15;;;8.70;73.00;;;;;;5000522;28;20471;-73
2021/03/26 00:28:54;;;;;;;17.92;12.60;;;8.80;73.20;;;;;;5003271;28;20061;-72
2021/03/26 00:31:19;;;;;;;17.85;12.43;;;8.80;73.40;;;;;;4999319;28;20038;-72
2021/03/26 00:33:45;;;;;;;20.63;13.30;;;8.90;73.60;;;;;;5005080;28;20034;-73
2021/03/26 00:36:11;;;;;;;20.17;13.25;;;9.00;73.70;;;;;;4999295;28;20052;-73
2021/03/26 00:38:37;;;;;;;19.30;13.18;;;9.00;73.60;;;;;;4999190;28;20030;-73
2021/03/26 00:41:03;;;;;;;18.50;13.23;;;9.00;73.60;;;;;;4995460;28;20026;-73
2021/03/26 00:43:30;;;;;;;20.80;13.00;;;9.10;73.50;;;;;;5000477;28;20753;-72
2021/03/26 00:45:55;;;;;;;21.48;14.05;;;9.10;73.50;;;;;;5003407;28;20034;-72
2021/03/26 00:48:22;;;;;;;24.08;13.90;;;9.10;73.60;;;;;;4998820;28;20354;-72
2021/03/26 00:50:56;;;;;;;20.30;13.70;;;9.10;73.70;;;;;;5000535;28;20030;-72
2021/03/26 00:53:26;;;;;;;18.73;13.60;;;9.10;73.70;;;;;;4993441;28;20080;-72
2021/03/26 00:55:53;;;;;;;22.80;14.85;;;9.10;73.90;;;;;;5000820;28;20042;-74
2021/03/26 00:58:20;;;;;;;20.10;13.52;;;9.10;74.00;;;;;;5000507;28;20409;-76
2021/03/26 01:00:47;;;;;;;21.42;15.05;;;9.10;74.00;;;;;;5001147;28;20030;-73
2021/03/26 01:03:13;;;;;;;22.23;15.13;;;9.10;74.30;;;;;;4993517;28;20042;-73
2021/03/26 01:05:43;;;;;;;25.52;16.58;;;9.10;74.40;;;;;;4996948;28;20036;-73
2021/03/26 01:08:09;;;;;;;22.30;15.02;;;9.10;74.60;;;;;;5003118;28;20022;-72
2021/03/26 01:10:45;;;;;;;21.23;15.50;;;9.10;74.80;;;;;;4994239;28;20042;-73
2021/03/26 01:13:12;;;;;;;22.63;15.70;;;9.10;75.00;;;;;;4995360;28;20113;-73
2021/03/26 01:15:38;;;;;;;21.60;15.25;;;9.00;75.20;;;;;;5000974;28;20136;-73
2021/03/26 01:18:15;;;;;;;24.35;16.70;;;9.00;75.40;;;;;;4998353;28;20034;-72
2021/03/26 01:20:41;;;;;;;25.13;16.25;;;8.90;75.50;;;;;;5002041;28;20493;-74
2021/03/26 01:23:07;;;;;;;24.63;16.83;;;8.90;75.80;;;;;;5002003;28;20041;-73
2021/03/26 01:25:35;;;;;;;28.52;18.75;;;8.90;76.00;;;;;;4996823;28;20536;-73
2021/03/26 01:28:02;;;;;;;24.42;16.35;;;8.90;76.20;;;;;;4999071;28;20124;-73
2021/03/26 01:30:30;;;;;;;24.52;17.42;;;8.90;76.30;;;;;;5000844;28;20026;-73
2021/03/26 01:32:56;;;;;;;23.75;16.42;;;8.90;76.30;;;;;;4998053;28;20030;-73
2021/03/26 01:35:24;;;;;;;23.50;16.02;;;8.90;76.60;;;;;;5001051;28;20041;-73
2021/03/26 01:37:49;;;;;;;24.17;16.33;;;8.90;76.50;;;;;;5000332;28;20064;-73
2021/03/26 01:40:20;;;;;;;27.65;17.48;;;8.90;76.50;;;;;;4998700;28;20437;-73
2021/03/26 01:42:46;;;;;;;22.88;17.70;;;8.90;76.70;;;;;;5000227;28;20544;-73
2021/03/26 01:45:25;;;;;;;26.70;18.02;;;8.90;76.80;;;;;;5003683;28;20026;-73
2021/03/26 01:47:53;;;;;;;25.85;17.00;;;8.80;77.20;;;;;;5001308;28;20118;-73
2021/03/26 01:50:22;;;;;;;25.40;17.33;;;8.80;77.20;;;;;;5004314;28;20056;-72
2021/03/26 01:52:47;;;;;;;25.00;16.45;;;8.80;77.20;;;;;;4997913;28;20042;-74
2021/03/26 01:55:40;;;;;;;25.38;17.30;;;8.80;77.20;;;;;;4997856;28;20036;-76
2021/03/26 01:58:06;;;;;;;26.08;16.63;;;8.80;77.20;;;;;;4994249;28;20061;-74
2021/03/26 02:00:45;;;;;;;26.92;17.50;;;8.70;77.20;;;;;;5005449;28;20117;-73
2021/03/26 02:03:21;;;;;;;24.63;17.45;;;8.70;77.40;;;;;;5003328;28;20391;-72
2021/03/26 02:05:48;;;;;;;26.30;17.05;;;8.70;77.40;;;;;;5004037;28;20026;-74
2021/03/26 02:08:16;;;;;;;23.13;16.58;;;8.70;77.50;;;;;;5004679;28;20022;-74
2021/03/26 02:10:43;;;;;;;24.60;16.33;;;8.60;77.70;;;;;;5004759;28;20028;-73
2021/03/26 02:13:20;;;;;;;29.00;18.15;;;8.60;77.90;;;;;;4997119;28;20410;-74
2021/03/26 02:15:47;;;;;;;25.52;17.17;;;8.60;78.00;;;;;;5000587;28;20041;-73
2021/03/26 02:18:23;;;;;;;27.13;17.33;;;8.50;78.00;;;;;;5003117;28;20037;-73
2021/03/26 02:21:12;;;;;;;25.10;18.20;;;8.50;78.10;;;;;;5005956;28;20042;-73
2021/03/26 02:23:38;;;;;;;27.77;18.83;;;8.40;78.50;;;;;;4991663;28;20486;-74
2021/03/26 02:26:25;;;;;;;28.77;18.58;;;8.40;78.60;;;;;;5000216;28;20044;-72
2021/03/26 02:28:52;;;;;;;27.63;19.17;;;8.30;78.90;;;;;;5003294;28;20074;-73
2021/03/26 02:31:18;;;;;;;28.63;18.83;;;8.20;78.80;;;;;;4998219;28;20057;-73
2021/03/26 02:33:46;;;;;;;29.55;20.25;;;8.20;79.10;;;;;;5002021;28;20070;-73
2021/03/26 02:36:17;;;;;;;27.15;18.95;;;8.10;79.50;;;;;;4998972;28;20045;-73
2021/03/26 02:39:08;;;;;;;32.28;19.50;;;8.00;79.60;;;;;;5005092;28;20046;-73
2021/03/26 02:41:39;;;;;;;29.60;20.23;;;8.00;79.80;;;;;;5009001;28;20373;-73
2021/03/26 02:44:13;;;;;;;28.08;18.85;;;7.90;79.90;;;;;;4999930;28;20030;-72
2021/03/26 02:46:54;;;;;;;28.25;20.38;;;7.90;79.80;;;;;;4997969;28;20049;-73
2021/03/26 02:49:51;;;;;;;32.20;19.60;;;7.80;80.00;;;;;;5000304;28;20033;-73
2021/03/26 02:52:28;;;;;;;29.20;19.55;;;7.80;80.10;;;;;;5006528;28;20069;-72
2021/03/26 02:54:54;;;;;;;31.40;20.15;;;7.70;80.30;;;;;;4995195;28;20034;-74
2021/03/26 02:57:31;;;;;;;32.70;20.77;;;7.70;80.50;;;;;;4992545;28;22862;-73
2021/03/26 03:00:13;;;;;;;32.45;21.83;;;7.60;80.60;;;;;;5005913;28;20113;-73
2021/03/26 03:02:42;;;;;;;33.05;20.02;;;7.60;80.70;;;;;;5003154;28;20127;-73
2021/03/26 03:05:22;;;;;;;29.05;19.52;;;7.60;80.70;;;;;;4997893;28;20362;-73
2021/03/26 03:07:53;;;;;;;33.97;19.98;;;7.60;80.80;;;;;;5013851;28;20422;-72
2021/03/26 03:10:19;;;;;;;28.98;18.73;;;7.50;80.90;;;;;;5003728;28;20042;-76
2021/03/26 03:12:45;;;;;;;33.15;20.77;;;7.50;81.00;;;;;;5004636;28;20246;-73
2021/03/26 03:15:22;;;;;;;33.40;20.02;;;7.50;81.10;;;;;;4996653;28;20054;-73
2021/03/26 03:18:00;;;;;;;30.83;20.15;;;7.40;81.30;;;;;;5003111;28;20064;-73
2021/03/26 03:20:33;;;;;;;31.08;20.00;;;7.40;81.40;;;;;;5002722;28;20044;-73
2021/03/26 03:23:33;;;;;;;30.98;20.92;;;7.40;81.40;;;;;;5000067;28;20053;-73
2021/03/26 03:26:04;;;;;;;29.10;18.98;;;7.30;81.50;;;;;;5011513;28;20061;-73
2021/03/26 03:28:36;;;;;;;32.58;20.13;;;7.30;81.60;;;;;;4992143;28;20429;-73
2021/03/26 03:31:11;;;;;;;27.20;18.67;;;7.30;81.50;;;;;;4995584;28;20052;-73
2021/03/26 03:33:37;;;;;;;;;;;7.30;81.50;;;;;;5004250;28;20548;-73
2021/03/26 03:36:16;;;;;;;28.00;19.00;;;7.20;81.50;;;;;;5004401;28;20420;-73
2021/03/26 03:39:11;;;;;;;29.45;18.77;;;7.20;81.60;;;;;;4998991;28;20049;-72
2021/03/26 03:41:40;;;;;;;28.38;18.08;;;7.20;81.60;;;;;;4997328;28;20062;-72
2021/03/26 03:44:16;;;;;;;24.92;16.92;;;7.20;81.60;;;;;;4999050;28;20030;-73
2021/03/26 03:46:57;;;;;;;26.08;17.05;;;7.20;81.50;;;;;;5004911;28;20412;-74
2021/03/26 03:49:49;;;;;;;25.17;16.75;;;7.10;81.50;;;;;;5009435;28;20033;-72
2021/03/26 03:52:35;;;;;;;23.40;16.83;;;7.20;81.40;;;;;;5002176;28;20036;-73
2021/03/26 03:55:28;;;;;;;25.05;15.85;;;7.10;81.30;;;;;;4999789;28;20033;-73
2021/03/26 03:58:11;;;;;;;24.55;15.80;;;7.10;81.10;;;;;;5003898;28;20046;-75
2021/03/26 04:01:24;;;;;;;25.60;15.82;;;7.10;81.20;;;;;;5002665;28;20450;-73
2021/03/26 04:04:05;;;;;;;24.63;16.15;;;7.10;81.20;;;;;;4936915;28;20447;-73
2021/03/26 04:06:48;;;;;;;26.48;16.88;;;7.10;81.20;;;;;;5006329;28;20037;-73
2021/03/26 04:09:19;;;;;;;27.73;16.98;;;7.10;81.20;;;;;;5000345;28;20049;-73
2021/03/26 04:12:00;;;;;;;24.73;16.08;;;7.10;81.20;;;;;;5001469;28;20064;-73
2021/03/26 04:14:48;;;;;;;24.73;16.08;;;7.10;81.30;;;;;;4998048;28;20048;-73
2021/03/26 04:17:18;;;;;;;25.00;15.93;;;7.00;81.30;;;;;;5002143;28;20033;-73
2021/03/26 04:19:54;;;;;;;26.08;17.73;;;7.00;81.40;;;;;;5005753;28;20416;-72
2021/03/26 04:22:23;;;;;;;25.15;16.40;;;7.00;81.20;;;;;;5001156;28;20117;-73
2021/03/26 04:24:55;;;;;;;24.13;16.58;;;7.00;81.30;;;;;;5002509;28;20034;-73
2021/03/26 04:27:39;;;;;;;24.52;16.35;;;7.00;81.30;;;;;;4998738;28;20055;-76
2021/03/26 04:30:08;;;;;;;26.13;16.60;;;7.00;81.20;;;;;;5001677;28;20029;-73
2021/03/26 04:32:34;;;;;;;26.23;16.73;;;7.00;81.40;;;;;;5005647;28;20149;-73
2021/03/26 04:34:59;;;;;;;26.38;16.83;;;6.90;81.30;;;;;;5007648;28;20053;-74
2021/03/26 04:37:47;;;;;;;27.23;17.15;;;7.00;81.30;;;;;;5003329;28;20515;-74
2021/03/26 04:40:28;;;;;;;27.15;17.75;;;6.90;81.30;;;;;;5004323;28;20526;-73
2021/03/26 04:43:15;;;;;;;25.45;16.27;;;6.90;81.40;;;;;;5004463;28;20038;-73
2021/03/26 04:46:03;;;;;;;24.95;16.08;;;6.90;81.50;;;;;;5001658;28;20037;-73
2021/03/26 04:48:34;;;;;;;24.85;17.17;;;7.00;81.30;;;;;;5002542;28;20029;-75
2021/03/26 04:51:02;;;;;;;27.63;16.95;;;6.90;81.10;;;;;;5002659;28;20029;-73
2021/03/26 04:53:38;;;;;;;26.52;17.77;;;7.00;81.30;;;;;;5006220;28;20175;-74
2021/03/26 04:56:08;;;;;;;25.95;17.33;;;6.90;81.40;;;;;;5010721;28;20120;-73
2021/03/26 04:58:38;;;;;;;27.40;18.42;;;6.90;81.70;;;;;;5001631;28;20539;-72
2021/03/26 05:01:12;;;;;;;27.48;17.75;;;6.90;81.70;;;;;;4998088;28;20048;-73
2021/03/26 05:03:41;;;;;;;27.47;17.73;;;6.90;81.50;;;;;;4996648;28;20505;-73
2021/03/26 05:06:19;;;;;;;27.85;18.30;;;6.90;81.30;;;;;;4995853;28;20038;-74
2021/03/26 05:08:49;;;;;;;31.17;18.38;;;6.90;81.40;;;;;;5000599;28;20046;-75
2021/03/26 05:11:16;;;;;;;28.88;19.05;;;6.90;81.50;;;;;;4997982;28;20072;-73
2021/03/26 05:13:48;;;;;;;27.10;17.63;;;6.90;81.60;;;;;;5017532;28;20053;-72
2021/03/26 05:16:27;;;;;;;27.50;17.90;;;6.80;81.70;;;;;;4998966;28;20022;-73
2021/03/26 05:19:37;;;;;;;28.05;18.33;;;6.80;81.80;;;;;;4998879;28;20031;-74
2021/03/26 05:22:17;;;;;;;27.13;18.27;;;6.80;82.00;;;;;;4996427;28;20466;-73
2021/03/26 05:24:53;;;;;;;29.50;17.05;;;6.80;81.90;;;;;;5000209;28;20042;-73
2021/03/26 05:27:19;;;;;;;28.55;18.67;;;6.80;81.80;;;;;;4998882;28;20359;-72
2021/03/26 05:29:47;;;;;;;28.52;17.85;;;6.80;81.70;;;;;;5000588;28;20045;-72
2021/03/26 05:32:27;;;;;;;25.45;18.50;;;6.80;81.80;;;;;;4997482;28;20046;-72
2021/03/26 05:34:57;;;;;;;28.10;18.77;;;6.70;81.80;;;;;;5001504;28;20041;-73
2021/03/26 05:37:32;;;;;;;30.40;20.23;;;6.70;81.90;;;;;;4997201;28;20118;-72
2021/03/26 05:40:08;;;;;;;;;;;6.70;81.90;;;;;;5001907;28;20038;-74
2021/03/26 05:42:45;;;;;;;34.83;19.98;;;6.80;81.70;;;;;;5000709;28;19917;-74
2021/03/26 05:45:29;;;;;;;32.92;20.90;;;6.80;81.80;;;;;;5001011;28;20062;-73
2021/03/26 05:48:18;;;;;;;33.53;21.17;;;6.70;81.70;;;;;;5002336;28;20037;-74
2021/03/26 05:51:00;;;;;;;34.13;20.75;;;6.80;81.90;;;;;;4990833;28;20124;-74
2021/03/26 05:54:03;;;;;;;35.72;23.05;;;6.70;81.80;;;;;;4998939;28;20092;-74
2021/03/26 05:56:42;;;;;;;28.00;19.70;;;6.70;81.90;;;;;;5002448;28;20045;-76
2021/03/26 05:59:20;;;;;;;34.75;21.17;;;6.80;81.90;;;;;;4999579;28;20038;-77
2021/03/26 06:02:23;;;;;;;35.65;22.48;;;6.70;82.00;;;;;;5000617;28;20041;-74
2021/03/26 06:05:06;;;;;;;39.58;22.35;;;6.70;82.30;;;;;;5002541;28;20060;-74
2021/03/26 06:07:47;;;;;;;34.40;22.77;;;6.70;82.10;;;;;;4997591;28;20034;-75
2021/03/26 06:10:29;;;;;;;35.05;23.35;;;6.80;81.80;;;;;;5001582;28;20037;-75
2021/03/26 06:13:19;;;;;;;34.05;22.85;;;6.80;81.80;;;;;;5002300;28;20044;-75
2021/03/26 06:16:16;;;;;;;31.60;21.27;;;6.90;81.80;;;;;;4995317;28;20038;-74
2021/03/26 06:19:26;;;;;;;36.60;21.90;;;6.90;81.70;;;;;;5002387;28;20325;-75
2021/03/26 06:22:13;;;;;;;30.77;21.88;;;7.00;81.60;;;;;;4977041;28;20416;-78
2021/03/26 06:24:57;;;;;;;35.50;23.38;;;7.00;81.50;;;;;;5000522;28;20550;-74
2021/03/26 06:27:44;;;;;;;33.20;21.20;;;7.00;81.40;;;;;;5001911;28;20576;-75
2021/03/26 06:30:13;;;;;;;29.52;20.17;;;7.10;81.20;;;;;;5000742;28;20030;-74
2021/03/26 06:32:54;;;;;;;31.55;21.02;;;7.10;81.00;;;;;;5014581;28;20040;-72
2021/03/26 06:35:35;;;;;;;35.15;22.08;;;7.10;80.90;;;;;;5003532;28;20121;-71
2021/03/26 06:38:18;;;;;;;29.48;19.88;;;7.20;80.80;;;;;;5003893;28;20037;-73
2021/03/26 06:41:11;;;;;;;32.15;20.55;;;7.20;80.70;;;;;;4999740;28;20042;-72
2021/03/26 06:43:52;;;;;;;28.90;19.73;;;7.40;80.50;;;;;;5004025;28;20042;-72
2021/03/26 06:46:41;;;;;;;32.00;19.70;;;7.90;79.70;;;;;;5002952;28;20046;-72
2021/03/26 06:49:36;;;;;;;30.58;19.15;;;8.50;76.80;;;;;;5001611;28;20038;-71
2021/03/26 06:52:25;;;;;;;32.33;18.92;;;8.80;75.80;;;;;;4996471;28;20026;-72
2021/03/26 06:55:21;;;;;;;29.85;18.42;;;8.90;74.60;;;;;;4999784;28;20049;-71
2021/03/26 06:58:16;;;;;;;29.67;19.45;;;8.60;75.50;;;;;;5004622;28;20137;-72
2021/03/26 07:01:13;;;;;;;30.58;18.65;;;8.30;76.40;;;;;;5000101;28;20026;-74
2021/03/26 07:04:06;;;;;;;27.70;19.20;;;8.20;77.20;;;;;;5002066;28;20109;-72
2021/03/26 07:07:08;;;;;;;26.67;19.55;;;8.20;77.20;;;;;;4999908;28;20026;-71
2021/03/26 07:10:01;;;;;;;26.20;17.55;;;8.10;77.30;;;;;;5000328;28;20025;-71
2021/03/26 07:12:45;;;;;;;28.85;18.70;;;7.90;77.80;;;;;;5000188;28;20389;-71
2021/03/26 07:15:29;;;;;;;33.22;19.73;;;7.90;78.20;;;;;;5006043;28;20042;-71
2021/03/26 07:18:23;;;;;;;31.92;18.70;;;7.90;78.30;;;;;;5000344;28;20066;-72
2021/03/26 07:21:01;;;;;;;28.20;17.58;;;8.00;78.60;;;;;;5002821;28;20056;-71
2021/03/26 07:23:47;;;;;;;27.73;17.73;;;8.20;78.30;;;;;;5003932;28;20478;-71
2021/03/26 07:26:39;;;;;;;24.88;17.27;;;8.30;77.80;;;;;;4998205;28;20125;-70
2021/03/26 07:29:29;;;;;;;24.42;17.33;;;8.30;77.60;;;;;;4996696;28;20026;-71
2021/03/26 07:32:17;;;;;;;24.95;15.48;;;8.40;77.30;;;;;;5001530;28;20087;-73
2021/03/26 07:35:06;;;;;;;23.60;15.65;;;8.40;77.50;;;;;;4999754;28;20501;-71
2021/03/26 07:37:50;;;;;;;25.35;15.75;;;8.50;77.10;;;;;;5001822;28;20056;-71
2021/03/26 07:40:36;;;;;;;21.35;14.85;;;8.60;76.90;;;;;;4998922;28;20089;-71
2021/03/26 07:43:05;;;;;;;21.55;15.55;;;8.50;76.80;;;;;;5004567;28;20061;-74
2021/03/26 07:45:45;;;;;;;24.67;14.95;;;8.60;76.80;;;;;;5006819;28;20034;-72
2021/03/26 07:48:32;;;;;;;23.63;15.95;;;8.50;76.80;;;;;;5006611;28;20034;-70
2021/03/26 07:51:04;;;;;;;25.73;16.63;;;8.60;77.10;;;;;;5004635;28;20037;-72
2021/03/26 07:53:52;;;;;;;21.90;14.45;;;8.70;77.00;;;;;;5000755;28;20378;-71
2021/03/26 07:56:23;;;;;;;20.80;14.45;;;8.90;76.30;;;;;;5001623;28;20107;-70
2021/03/26 07:58:55;;;;;;;21.83;13.63;;;9.20;75.50;;;;;;5001741;28;20476;-71
2021/03/26 08:01:48;;;;;;;21.27;12.93;;;9.50;74.70;;;;;;5003159;28;20041;-70
2021/03/26 08:04:23;;;;;;;22.02;13.02;;;9.70;74.30;;;;;;4996147;28;20520;-71
2021/03/26 08:07:14;;;;;;;19.73;12.02;;;10.00;73.90;;;;;;5001877;28;20030;-70
2021/03/26 08:09:49;;;;;;;19.42;11.55;;;10.20;72.30;;;;;;4998941;28;20037;-73
2021/03/26 08:12:21;;;;;;;19.80;11.10;;;10.40;72.00;;;;;;4999152;28;20426;-70
2021/03/26 08:15:34;;;;;;;14.30;10.45;;;10.40;71.30;;;;;;5002680;28;20551;-70
2021/03/26 08:18:27;;;;;;;19.33;10.07;;;10.50;71.00;;;;;;5000195;28;20030;-71
2021/03/26 08:21:21;;;;;;;15.25;9.80;;;10.80;70.70;;;;;;4999875;28;20034;-71
2021/03/26 08:24:34;;;;;;;19.00;10.27;;;10.90;69.80;;;;;;4999594;28;20050;-71
2021/03/26 08:27:27;;;;;;;18.58;10.05;;;10.90;69.70;;;;;;5017606;28;20042;-72
2021/03/26 08:30:41;;;;;;;15.13;9.60;;;11.10;69.30;;;;;;5010060;28;20036;-72
2021/03/26 08:33:27;;;;;;;18.33;9.98;;;11.30;68.20;;;;;;4943285;28;20044;-71
2021/03/26 08:36:11;;;;;;;17.38;9.13;;;11.30;68.40;;;;;;4999639;28;20022;-71
2021/03/26 08:38:47;;;;;;;17.73;8.97;;;11.50;68.50;;;;;;5001031;28;20034;-74
2021/03/26 08:41:41;;;;;;;14.77;9.13;;;11.60;68.20;;;;;;4998329;28;20034;-73
2021/03/26 08:44:19;;;;;;;16.83;8.93;;;11.60;67.20;;;;;;4993541;28;20045;-71
2021/03/26 08:46:48;;;;;;;15.73;8.73;;;11.80;67.50;;;;;;5000680;28;20075;-70
2021/03/26 08:49:24;;;;;;;15.95;9.35;;;12.00;66.80;;;;;;5000086;28;20026;-75
2021/03/26 08:52:08;;;;;;;15.15;9.50;;;12.10;66.40;;;;;;5003936;28;20089;-70
2021/03/26 08:54:43;;;;;;;14.40;8.52;;;12.20;66.00;;;;;;5000751;28;20037;-71
2021/03/26 08:57:41;;;;;;;14.80;8.48;;;12.40;65.30;;;;;;4999839;28;20038;-71
2021/03/26 09:00:25;;;;;;;15.57;7.82;;;12.50;65.40;;;;;;4971031;28;20058;-72
2021/03/26 09:03:07;;;;;;;13.68;7.03;;;12.40;65.40;;;;;;5003690;28;20081;-70
2021/03/26 09:05:55;;;;;;;14.00;7.47;;;12.60;65.40;;;;;;4998916;28;20031;-71
2021/03/26 09:08:50;;;;;;;14.90;7.03;;;12.80;64.50;;;;;;4998953;28;20041;-70
2021/03/26 09:11:24;;;;;;;;;;;12.90;64.10;;;;;;5000193;28;20034;-70
2021/03/26 09:13:57;;;;;;;13.60;6.10;;;13.00;64.10;;;;;;4996880;28;19960;-70
2021/03/26 09:16:37;;;;;;;11.93;6.43;;;13.00;63.40;;;;;;5002170;28;20077;-73
2021/03/26 09:19:19;;;;;;;11.65;6.07;;;13.20;63.30;;;;;;5010275;28;20057;-70
2021/03/26 09:22:10;;;;;;;11.93;5.25;;;13.30;62.40;;;;;;5002571;28;20061;-70
2021/03/26 09:24:48;;;;;;;13.50;5.70;;;13.50;61.90;;;;;;5002528;28;20034;-72
2021/03/26 09:27:20;;;;;;;9.88;5.20;;;13.70;61.40;;;;;;5003368;28;20026;-70
2021/03/26 09:30:27;;;;;;;12.15;5.25;;;13.70;61.20;;;;;;5011888;28;20073;-70
2021/03/26 09:33:02;;;;;;;13.35;5.07;;;13.90;60.50;;;;;;4919359;29;21680;-72
2021/03/26 09:35:43;;;;;;;13.38;5.10;;;14.20;59.80;;;;;;4922680;29;20036;-72
2021/03/26 09:38:15;;;;;;;11.68;5.07;;;14.10;58.60;;;;;;4973192;28;20038;-71
2021/03/26 09:40:55;;;;;;;12.73;5.28;;;14.00;59.70;;;;;;4999548;28;20045;-70
2021/03/26 09:43:24;;;;;;;12.35;5.50;;;13.80;59.00;;;;;;5003016;28;20049;-70
2021/03/26 09:45:59;;;;;;;10.35;4.82;;;13.90;59.80;;;;;;5001083;28;20050;-70
2021/03/26 09:48:39;;;;;;;11.57;5.05;;;14.10;59.90;;;;;;5004794;28;20089;-72
2021/03/26 09:51:20;;;;;;;10.98;4.95;;;14.40;59.40;;;;;;5005384;28;20053;-75
2021/03/26 09:53:48;;;;;;;9.88;4.43;;;14.40;59.00;;;;;;5018199;28;20536;-72
2021/03/26 09:56:37;;;;;;;9.65;4.75;;;14.50;57.80;;;;;;5001338;28;20057;-72
2021/03/26 09:59:14;;;;;;;11.48;4.78;;;14.40;58.10;;;;;;5003519;28;20025;-71
2021/03/26 10:01:45;;;;;;;12.57;4.15;;;14.70;57.80;;;;;;5001733;28;20034;-70
2021/03/26 10:04:20;;;;;;;13.82;5.47;;;14.60;57.00;;;;;;4995717;28;20029;-70
2021/03/26 10:07:30;;;;;;;11.15;5.30;;;14.60;56.40;;;;;;5000390;28;20555;-70
2021/03/26 10:12:48;;;;;;;9.85;5.03;;;14.60;57.90;;;;;;4998105;28;20056;-70
2021/03/26 10:15:37;;;;;;;13.35;5.40;;;14.70;57.80;;;;;;4998730;28;20033;-69
2021/03/26 10:18:37;;;;;;;10.23;4.43;;;14.80;56.90;;;;;;5000797;28;20092;-70
2021/03/26 10:21:02;;;;;;;8.88;4.07;;;14.90;56.70;;;;;;5007281;28;20488;-68
2021/03/26 10:23:56;;;;;;;9.50;4.45;;;14.70;57.10;;;;;;4997863;28;20048;-68
2021/03/26 10:26:39;;;;;;;13.75;5.10;;;14.60;57.30;;;;;;5010344;28;20046;-67
2021/03/26 10:29:20;;;;;;;8.82;4.03;;;14.60;57.90;;;;;;5004672;28;20044;-67
2021/03/26 10:31:48;;;;;;;8.25;3.75;;;14.50;57.20;;;;;;4998409;28;20034;-68
2021/03/26 10:34:18;;;;;;;10.07;3.92;;;14.30;57.60;;;;;;5018777;28;20033;-68
2021/03/26 10:36:56;;;;;;;9.32;3.58;;;14.40;57.00;;;;;;5001565;28;20073;-68
2021/03/26 10:39:31;;;;;;;7.15;3.72;;;14.50;57.30;;;;;;4999203;28;20365;-67
2021/03/26 10:42:17;;;;;;;10.50;4.03;;;14.40;56.80;;;;;;5002189;28;20029;-67
2021/03/26 10:45:05;;;;;;;8.07;3.85;;;14.30;57.50;;;;;;5002075;28;20045;-67
2021/03/26 10:47:40;;;;;;;9.63;3.95;;;14.30;57.60;;;;;;4997734;28;20469;-69
2021/03/26 10:50:11;;;;;;;12.07;4.00;;;14.30;58.30;;;;;;4997508;28;20113;-71
2021/03/26 10:52:52;;;;;;;10.98;3.92;;;14.10;59.30;;;;;;4997413;28;20085;-69
2021/03/26 10:55:23;;;;;;;11.82;4.53;;;14.10;58.40;;;;;;4995049;28;20068;-69
2021/03/26 10:58:13;;;;;;;8.82;4.00;;;14.10;58.40;;;;;;5001877;28;20042;-69
2021/03/26 11:00:45;;;;;;;8.70;4.15;;;14.40;58.80;;;;;;5002029;28;20648;-70
2021/03/26 11:03:29;;;;;;;10.32;3.70;;;14.20;58.80;;;;;;5001582;28;20070;-69
2021/03/26 11:06:00;;;;;;;12.60;4.55;;;14.10;58.30;;;;;;5004573;28;20035;-69
2021/03/26 11:08:29;;;;;;;8.82;3.97;;;14.10;59.00;;;;;;5000959;28;20040;-69
2021/03/26 11:11:05;;;;;;;8.68;4.05;;;14.20;59.00;;;;;;5000832;28;20034;-70
2021/03/26 11:13:59;;;;;;;9.65;3.97;;;14.40;58.30;;;;;;5000563;28;20041;-69
2021/03/26 11:16:49;;;;;;;9.93;4.13;;;14.60;58.00;;;;;;5002067;28;20470;-70
2021/03/26 11:19:21;;;;;;;11.32;4.70;;;14.60;57.10;;;;;;4998444;28;20061;-70
2021/03/26 11:21:50;;;;;;;7.97;3.90;;;14.80;56.70;;;;;;5004269;28;20050;-72
2021/03/26 11:24:16;;;;;;;9.30;4.25;;;14.90;56.50;;;;;;5000281;28;20038;-69
2021/03/26 11:27:03;;;;;;;7.15;3.80;;;15.10;56.00;;;;;;5002020;28;20109;-68
2021/03/26 11:29:34;;;;;;;8.30;3.55;;;15.10;55.70;;;;;;5000500;28;20467;-71
2021/03/26 11:32:05;;;;;;;8.20;3.33;;;15.20;55.70;;;;;;4998680;28;20022;-68
2021/03/26 11:35:02;;;;;;;7.43;3.70;;;15.10;54.60;;;;;;4997246;28;20049;-70
2021/03/26 11:37:40;;;;;;;7.93;3.47;;;15.30;55.00;;;;;;4999639;28;20365;-69
2021/03/26 11:40:15;;;;;;;7.53;3.67;;;15.40;54.40;;;;;;4998216;28;20156;-69
2021/03/26 11:43:02;;;;;;;6.43;3.58;;;15.20;54.40;;;;;;5001996;28;20077;-69
2021/03/26 11:45:36;;;;;;;8.52;3.95;;;15.30;54.90;;;;;;4999736;28;20081;-69
2021/03/26 11:48:14;;;;;;;9.13;4.15;;;15.30;54.70;;;;;;4999771;28;20042;-69
2021/03/26 11:51:10;;;;;;;10.10;4.40;;;15.00;54.80;;;;;;5002821;28;20042;-67
2021/03/26 11:53:41;;;;;;;9.20;4.07;;;15.10;54.50;;;;;;4994686;28;20019;-68
2021/03/26 11:56:19;;;;;;;9.80;3.67;;;15.10;53.90;;;;;;4993620;28;20049;-70
2021/03/26 11:59:08;;;;;;;8.70;3.97;;;15.30;53.70;;;;;;5000167;28;20504;-70
2021/03/26 12:01:56;;;;;;;11.05;4.05;;;15.60;53.20;;;;;;4996483;28;20110;-69
2021/03/26 12:04:30;;;;;;;12.98;4.60;;;15.20;53.80;;;;;;4994646;28;20072;-71
2021/03/26 12:07:07;;;;;;;8.70;4.30;;;15.30;54.00;;;;;;5000089;28;20045;-68
2021/03/26 12:09:55;;;;;;;9.00;3.72;;;15.50;53.00;;;;;;4992267;28;20026;-69
2021/03/26 12:12:31;;;;;;;8.90;3.90;;;15.70;52.60;;;;;;4999650;28;20041;-68
2021/03/26 12:15:27;;;;;;;7.03;3.72;;;15.60;51.90;;;;;;5001981;28;20053;-68
2021/03/26 12:18:31;;;;;;;9.73;4.57;;;15.60;52.50;;;;;;5001337;28;20030;-70
2021/03/26 12:21:41;;;;;;;7.72;4.13;;;15.80;52.30;;;;;;4998382;28;20037;-68
2021/03/26 12:24:18;;;;;;;9.13;4.30;;;16.00;51.50;;;;;;4999117;28;20433;-68
2021/03/26 12:27:15;;;;;;;9.20;4.13;;;15.60;52.00;;;;;;4996057;28;20058;-69
2021/03/26 12:30:02;;;;;;;9.00;4.10;;;15.20;52.90;;;;;;4995446;28;20029;-68
2021/03/26 12:32:32;;;;;;;8.38;4.20;;;15.00;53.30;;;;;;5006870;28;20034;-68
2021/03/26 12:35:15;;;;;;;6.18;3.80;;;15.00;53.70;;;;;;4993604;28;20045;-69
2021/03/26 12:38:13;;;;;;;8.93;4.10;;;15.30;53.90;;;;;;4997933;28;20101;-69
2021/03/26 12:40:39;;;;;;;10.90;3.90;;;15.80;52.50;;;;;;4996005;28;20030;-69
2021/03/26 12:43:09;;;;;;;9.73;4.22;;;16.00;52.10;;;;;;4994549;28;20508;-69
2021/03/26 12:45:45;;;;;;;9.18;4.20;;;16.10;51.30;;;;;;4994260;28;20458;-69
2021/03/26 12:48:18;;;;;;;10.75;4.47;;;16.20;51.90;;;;;;4997576;28;20069;-70
2021/03/26 12:51:27;;;;;;;7.55;3.67;;;16.30;50.50;;;;;;4999238;28;20105;-69
2021/03/26 12:54:28;;;;;;;10.45;4.45;;;16.30;51.30;;;;;;4993219;28;20442;-69
2021/03/26 12:57:00;;;;;;;9.27;3.97;;;16.50;50.30;;;;;;4993414;28;20049;-71
2021/03/26 12:59:37;;;;;;;11.63;4.43;;;16.40;51.00;;;;;;4996822;28;20042;-69
2021/03/26 13:02:31;;;;;;;9.02;4.50;;;16.30;50.60;;;;;;4995541;28;20029;-72
2021/03/26 13:05:02;;;;;;;7.70;4.25;;;16.30;50.70;;;;;;4984568;28;20033;-71
2021/03/26 13:07:53;;;;;;;9.55;4.90;;;16.50;50.50;;;;;;4997104;28;20038;-71
2021/03/26 13:10:36;;;;;;;8.63;5.05;;;16.10;50.80;;;;;;4972430;28;20048;-69
2021/03/26 13:13:20;;;;;;;9.63;4.85;;;15.90;51.80;;;;;;4995370;28;20393;-70
2021/03/26 13:16:23;;;;;;;9.55;5.28;;;15.70;52.60;;;;;;4999717;28;20045;-69
2021/03/26 13:18:50;;;;;;;9.38;5.38;;;15.60;52.80;;;;;;5002165;28;20034;-69
2021/03/26 13:21:34;;;;;;;9.70;5.32;;;15.50;53.40;;;;;;5000365;28;20542;-70
2021/03/26 13:24:34;;;;;;;8.90;4.57;;;15.60;53.00;;;;;;4998087;28;20128;-69
2021/03/26 13:27:18;;;;;;;10.90;5.25;;;15.40;53.40;;;;;;5004952;28;20030;-72
2021/03/26 13:30:02;;;;;;;9.73;4.90;;;15.20;53.80;;;;;;5004513;28;20168;-69
2021/03/26 13:32:56;;;;;;;10.73;5.40;;;15.50;54.00;;;;;;5004982;28;20042;-69
2021/03/26 13:35:44;;;;;;;12.30;5.75;;;15.60;53.20;;;;;;4982928;28;20129;-69
2021/03/26 13:38:29;;;;;;;10.10;5.80;;;15.60;53.60;;;;;;5002531;28;20030;-69
2021/03/26 13:40:57;;;;;;;10.05;5.40;;;15.50;53.90;;;;;;5005199;28;20062;-69
2021/03/26 13:43:28;;;;;;;9.07;5.13;;;15.40;53.80;;;;;;5002947;28;20589;-70
2021/03/26 13:45:58;;;;;;;9.05;5.13;;;15.20;53.90;;;;;;5004654;28;20100;-69